KOGA/OGA METAR and TAF weather

Enter ICAO airport designator
Station Type Date Time Source
KOGA METAR 2019/02/16 03:15 UTC NOAA

KOGA 160315Z AUTO 10005KT 10SM CLR M12/M13 A2991 RMK AO2 T11181132


Station Type Date Time Source
KOGA Decoded METAR 2019/02/16 03:15 UTC NOAA

Ogallala, Searle Field Airport, NE, United States (KOGA) 41-07-11N 101-46-08W
Feb 15, 2019 - 10:15 PM EST / 2019.02.16 0315 UTC
Wind: from the E (100 degrees) at 6 MPH (5 KT):0
Visibility: 10 mile(s):0
Sky conditions: clear
Temperature: 10.8 F (-11.8 C)
Windchill: 1 F (-17 C):1
Dew Point: 8.2 F (-13.2 C)
Relative Humidity: 89%
Pressure (altimeter): 29.91 in. Hg (1012 hPa)
ob: KOGA 160315Z AUTO 10005KT 10SM CLR M12/M13 A2991 RMK AO2 T11181132
cycle: 3

Station Type Date Time Source
KOGA TAF UTC NOAA

Error!


Example: see airport list